createdAt,value
2018-11-29T00:01:40.485Z,67.90
2018-11-29T00:04:11.591Z,69.70
2018-11-29T00:06:43.505Z,68.97
2018-11-29T00:09:15.489Z,72.90
2018-11-29T00:11:46.757Z,72.67
2018-11-29T00:14:18.820Z,70.73
2018-11-29T00:16:50.441Z,68.90
2018-11-29T00:19:21.453Z,73.77
2018-11-29T00:21:52.971Z,70.67
2018-11-29T00:24:24.142Z,70.80
2018-11-29T00:26:55.721Z,72.73
2018-11-29T00:29:26.733Z,70.07
2018-11-29T00:31:58.297Z,72.43
2018-11-29T00:34:29.442Z,72.67
2018-11-29T00:37:01.377Z,74.50
2018-11-29T00:39:32.649Z,77.17
2018-11-29T00:42:03.937Z,74.67
2018-11-29T00:44:35.057Z,77.73
2018-11-29T00:47:06.510Z,74.90
2018-11-29T00:49:37.588Z,73.50
2018-11-29T00:52:09.128Z,74.70
2018-11-29T00:54:40.284Z,76.37
2018-11-29T00:57:11.736Z,76.53
2018-11-29T00:59:42.785Z,74.80
2018-11-29T01:02:14.801Z,75.63
2018-11-29T01:04:46.165Z,75.13
2018-11-29T01:07:18.290Z,76.97
2018-11-29T01:09:50.281Z,75.57
2018-11-29T01:12:21.833Z,78.50
2018-11-29T01:14:53.086Z,76.23
2018-11-29T01:17:25.123Z,81.30
2018-11-29T01:19:56.237Z,75.67
2018-11-29T01:22:27.628Z,77.70
2018-11-29T01:24:58.860Z,76.43
2018-11-29T01:27:30.044Z,78.20
2018-11-29T01:30:01.459Z,77.63
2018-11-29T01:32:32.877Z,78.30
2018-11-29T01:35:04.141Z,75.43
2018-11-29T01:37:35.688Z,78.03
2018-11-29T01:40:08.290Z,78.97
2018-11-29T01:42:40.378Z,74.87
2018-11-29T01:45:11.604Z,77.20
2018-11-29T01:47:43.441Z,77.33
2018-11-29T01:50:14.657Z,78.13
2018-11-29T01:52:46.246Z,75.33
2018-11-29T01:55:17.317Z,76.17
2018-11-29T01:57:48.744Z,79.87
2018-11-29T02:00:20.939Z,76.63
2018-11-29T02:02:53.758Z,78.53
2018-11-29T02:05:24.837Z,77.70
2018-11-29T02:07:56.368Z,81.03
2018-11-29T02:10:33.299Z,82.60
2018-11-29T02:13:04.892Z,80.40
2018-11-29T02:15:36.078Z,81.53
2018-11-29T02:18:07.553Z,81.17
2018-11-29T02:20:39.211Z,79.90
2018-11-29T02:23:10.741Z,80.90
2018-11-29T02:25:41.857Z,79.03
2018-11-29T02:28:13.945Z,84.93
2018-11-29T02:30:45.071Z,85.13
2018-11-29T02:33:16.456Z,82.87
2018-11-29T02:35:47.873Z,83.50
2018-11-29T02:38:19.327Z,85.87
2018-11-29T02:40:50.458Z,83.47
2018-11-29T02:43:22.281Z,83.90
2018-11-29T02:45:53.419Z,83.10
2018-11-29T02:48:24.753Z,87.07
2018-11-29T02:50:56.137Z,83.97
2018-11-29T02:53:27.448Z,84.73
2018-11-29T02:55:58.688Z,86.77
2018-11-29T02:58:30.058Z,86.17
2018-11-29T03:01:02.212Z,85.70
2018-11-29T03:03:33.572Z,82.80
2018-11-29T03:06:04.670Z,85.67
2018-11-29T03:08:36.261Z,83.83
2018-11-29T03:11:09.145Z,87.63
2018-11-29T03:13:40.937Z,82.50
2018-11-29T03:16:12.664Z,80.70
2018-11-29T03:18:43.870Z,81.83
2018-11-29T03:21:15.156Z,79.93
2018-11-29T03:23:46.578Z,81.90
2018-11-29T03:26:17.811Z,80.67
2018-11-29T03:28:49.296Z,85.53
2018-11-29T03:31:20.440Z,82.67
2018-11-29T03:33:51.841Z,82.87
2018-11-29T03:36:23.157Z,78.83
2018-11-29T03:38:54.650Z,75.00
2018-11-29T03:41:25.857Z,69.27
2018-11-29T03:43:57.133Z,65.80
2018-11-29T03:46:28.407Z,64.17
2018-11-29T03:48:59.877Z,61.07
2018-11-29T03:51:31.256Z,64.93
2018-11-29T03:54:04.991Z,60.93
2018-11-29T03:56:36.371Z,67.27
2018-11-29T03:59:09.223Z,68.90
2018-11-29T04:01:40.049Z,68.23
2018-11-29T04:04:11.518Z,68.60
2018-11-29T04:06:43.074Z,68.77
2018-11-29T04:09:14.700Z,68.10
2018-11-29T04:11:47.101Z,66.67
2018-11-29T04:14:18.384Z,62.33
2018-11-29T04:16:49.496Z,61.20
2018-11-29T04:19:21.253Z,63.80
2018-11-29T04:21:52.379Z,62.07
2018-11-29T04:24:23.839Z,62.97
2018-11-29T04:26:54.861Z,62.53
2018-11-29T04:29:26.321Z,58.33
2018-11-29T04:31:57.363Z,55.70
2018-11-29T04:34:28.841Z,55.50
2018-11-29T04:36:59.952Z,54.97
2018-11-29T04:39:31.617Z,45.33
2018-11-29T04:42:02.813Z,42.13
2018-11-29T04:44:34.928Z,39.30
2018-11-29T04:47:06.178Z,35.67
2018-11-29T04:49:37.461Z,31.90
2018-11-29T04:52:08.705Z,34.90
2018-11-29T04:54:40.665Z,29.90
2018-11-29T04:57:11.805Z,28.20
2018-11-29T04:59:43.226Z,30.40
2018-11-29T05:02:14.301Z,27.03
2018-11-29T05:04:45.710Z,28.87
2018-11-29T05:07:16.851Z,29.47
2018-11-29T05:09:48.657Z,28.10
2018-11-29T05:12:20.901Z,28.70
2018-11-29T05:14:52.894Z,26.80
2018-11-29T05:17:24.652Z,24.00
2018-11-29T05:19:56.242Z,27.60
2018-11-29T05:22:27.497Z,28.70
2018-11-29T05:24:58.989Z,28.63
2018-11-29T05:27:30.179Z,29.03
2018-11-29T05:30:02.322Z,24.70
2018-11-29T05:32:33.567Z,26.90
2018-11-29T05:35:05.445Z,24.10
2018-11-29T05:37:36.557Z,23.23
2018-11-29T05:40:09.274Z,19.37
2018-11-29T05:42:40.329Z,20.27
2018-11-29T05:45:12.477Z,21.80
2018-11-29T05:47:43.469Z,18.10
2018-11-29T05:50:15.116Z,18.27
2018-11-29T05:52:46.065Z,17.67
2018-11-29T05:55:17.577Z,18.90
2018-11-29T05:57:48.598Z,21.67
2018-11-29T06:00:20.259Z,19.20
2018-11-29T06:02:51.712Z,22.10
2018-11-29T06:05:23.557Z,20.80
2018-11-29T06:07:54.746Z,19.73
2018-11-29T06:10:26.029Z,18.20
2018-11-29T06:12:58.188Z,17.27
2018-11-29T06:15:29.981Z,17.40
2018-11-29T06:18:00.870Z,17.70
2018-11-29T06:20:32.417Z,16.20
2018-11-29T06:23:05.265Z,17.00
2018-11-29T06:25:36.666Z,17.07
2018-11-29T06:28:08.997Z,17.70
2018-11-29T06:30:40.657Z,17.17
2018-11-29T06:33:11.696Z,17.00
2018-11-29T06:35:43.265Z,18.47
2018-11-29T06:38:14.280Z,20.97
2018-11-29T06:40:45.749Z,22.50
2018-11-29T06:43:16.880Z,21.77
2018-11-29T06:45:48.385Z,22.20
2018-11-29T06:48:19.900Z,22.93
2018-11-29T06:50:51.173Z,21.93
2018-11-29T06:53:26.868Z,19.93
2018-11-29T06:55:58.597Z,25.00
2018-11-29T06:58:29.537Z,22.83
2018-11-29T07:01:01.054Z,20.27
2018-11-29T07:03:32.048Z,18.60
2018-11-29T07:06:04.006Z,15.67
2018-11-29T07:08:34.908Z,16.30
2018-11-29T07:11:07.784Z,17.60
2018-11-29T07:13:40.666Z,20.53
2018-11-29T07:16:12.293Z,17.27
2018-11-29T07:18:43.381Z,18.30
2018-11-29T07:21:24.860Z,18.40
2018-11-29T07:23:56.023Z,17.50
2018-11-29T07:26:27.965Z,17.40
2018-11-29T07:28:59.109Z,17.23
2018-11-29T07:31:30.512Z,17.10
2018-11-29T07:34:02.333Z,18.17
2018-11-29T07:36:33.896Z,18.00
2018-11-29T07:39:05.408Z,16.33
2018-11-29T07:41:36.629Z,16.70
2018-11-29T07:44:08.449Z,15.73
2018-11-29T07:46:40.121Z,15.40
2018-11-29T07:49:11.371Z,15.73
2018-11-29T07:51:42.745Z,14.00
2018-11-29T07:54:13.924Z,12.50
2018-11-29T07:56:45.557Z,11.27
2018-11-29T07:59:16.780Z,12.60
2018-11-29T08:01:48.023Z,11.33
2018-11-29T08:04:19.246Z,13.30
2018-11-29T08:06:50.584Z,13.57
2018-11-29T08:09:21.804Z,13.07
2018-11-29T08:11:53.165Z,13.10
2018-11-29T08:14:25.276Z,12.47
2018-11-29T08:16:57.621Z,14.40
2018-11-29T08:19:28.857Z,14.67
2018-11-29T08:22:00.526Z,17.90
2018-11-29T08:24:31.740Z,17.60
2018-11-29T08:27:03.240Z,17.70
2018-11-29T08:29:35.163Z,18.53
2018-11-29T08:32:07.014Z,20.00
2018-11-29T08:34:38.130Z,21.30
2018-11-29T08:37:09.425Z,19.57
2018-11-29T08:39:40.556Z,19.70
2018-11-29T08:42:12.045Z,19.83
2018-11-29T08:44:43.209Z,20.50
2018-11-29T08:47:14.524Z,20.03
2018-11-29T08:49:45.696Z,18.30
2018-11-29T08:52:17.134Z,17.57
2018-11-29T08:54:48.445Z,17.90
2018-11-29T08:57:19.569Z,17.90
2018-11-29T08:59:50.546Z,16.60
2018-11-29T09:02:22.021Z,16.60
2018-11-29T09:04:53.677Z,16.57
2018-11-29T09:07:25.120Z,16.40
2018-11-29T09:09:56.083Z,14.93
2018-11-29T09:12:27.612Z,15.17
2018-11-29T09:14:59.413Z,16.37
2018-11-29T09:17:30.945Z,15.03
2018-11-29T09:20:02.167Z,15.27
2018-11-29T09:22:34.047Z,15.70
2018-11-29T09:25:05.298Z,15.07
2018-11-29T09:27:36.894Z,15.93
2018-11-29T09:30:14.738Z,17.10
2018-11-29T09:32:46.481Z,14.03
2018-11-29T09:35:17.583Z,15.00
2018-11-29T09:37:49.011Z,15.40
2018-11-29T09:40:20.494Z,15.17
2018-11-29T09:42:52.422Z,17.00
2018-11-29T09:45:24.148Z,17.07
2018-11-29T09:47:57.105Z,16.20
2018-11-29T09:50:28.451Z,17.50
2018-11-29T09:53:00.154Z,15.60
2018-11-29T09:55:31.481Z,16.30
2018-11-29T09:58:03.329Z,15.50
2018-11-29T10:00:34.765Z,15.23
2018-11-29T10:03:11.977Z,15.80
2018-11-29T10:05:44.094Z,15.90
2018-11-29T10:08:17.655Z,16.43
2018-11-29T10:10:48.903Z,17.30
2018-11-29T10:13:20.033Z,15.43
2018-11-29T10:15:51.869Z,16.20
2018-11-29T10:18:23.197Z,15.03
2018-11-29T10:20:54.437Z,15.13
2018-11-29T10:23:25.780Z,15.33
2018-11-29T10:25:56.913Z,14.60
2018-11-29T10:28:28.345Z,14.33
2018-11-29T10:31:01.657Z,14.90
2018-11-29T10:33:33.009Z,14.70
2018-11-29T10:36:05.661Z,14.87
2018-11-29T10:38:37.209Z,14.43
2018-11-29T10:41:08.641Z,14.60
2018-11-29T10:43:40.460Z,14.70
2018-11-29T10:46:12.994Z,16.37
2018-11-29T10:48:44.573Z,16.20
2018-11-29T10:51:15.673Z,16.00
2018-11-29T10:53:47.265Z,15.27
2018-11-29T10:56:18.301Z,16.03
2018-11-29T10:58:49.986Z,16.10
2018-11-29T11:02:26.085Z,16.03
2018-11-29T11:04:57.589Z,14.90
2018-11-29T11:07:28.922Z,15.33
2018-11-29T11:10:00.377Z,16.13
2018-11-29T11:12:31.797Z,17.20
2018-11-29T11:15:04.009Z,14.73
2018-11-29T11:17:36.097Z,15.80
2018-11-29T11:20:07.789Z,15.80
2018-11-29T11:22:39.053Z,15.67
2018-11-29T11:25:11.434Z,15.43
2018-11-29T11:27:42.509Z,16.80
2018-11-29T11:30:16.898Z,15.60
2018-11-29T11:32:48.670Z,15.60
2018-11-29T11:35:20.185Z,15.13
2018-11-29T11:37:51.556Z,15.17
2018-11-29T11:40:22.941Z,15.83
2018-11-29T11:42:54.005Z,15.73
2018-11-29T11:45:25.478Z,14.20
2018-11-29T11:48:02.932Z,14.00
2018-11-29T11:50:28.245Z,15.10
2018-11-29T11:52:59.213Z,14.93
2018-11-29T11:55:30.874Z,16.47
2018-11-29T11:58:02.300Z,17.60
2018-11-29T12:00:34.174Z,16.70
2018-11-29T12:03:10.869Z,16.47
2018-11-29T12:05:42.260Z,16.87
2018-11-29T12:08:13.566Z,14.27
2018-11-29T12:10:45.709Z,15.90
2018-11-29T12:13:16.909Z,14.03
2018-11-29T12:15:48.221Z,14.13
2018-11-29T12:18:20.299Z,12.87
2018-11-29T12:20:51.920Z,13.20
2018-11-29T12:23:22.905Z,11.97
2018-11-29T12:25:54.421Z,11.83
2018-11-29T12:28:25.436Z,11.90
2018-11-29T12:30:57.208Z,11.93
2018-11-29T12:33:28.302Z,11.77
2018-11-29T12:35:59.953Z,11.33
2018-11-29T12:38:30.946Z,12.60
2018-11-29T12:41:02.479Z,11.57
2018-11-29T12:43:33.675Z,11.23
2018-11-29T12:46:07.733Z,11.13
2018-11-29T12:48:39.817Z,12.43
2018-11-29T12:51:11.539Z,10.90
2018-11-29T12:53:42.912Z,10.83
2018-11-29T12:56:14.280Z,11.23
2018-11-29T12:58:45.577Z,10.53
2018-11-29T13:01:16.949Z,10.73
2018-11-29T13:03:48.279Z,10.60
2018-11-29T13:06:19.586Z,9.63
2018-11-29T13:08:54.872Z,8.80
2018-11-29T13:11:26.287Z,8.50
2018-11-29T13:13:57.245Z,7.83
2018-11-29T13:16:28.924Z,7.83
2018-11-29T13:19:01.808Z,8.57
2018-11-29T13:21:33.572Z,8.17
2018-11-29T13:24:05.147Z,7.80
2018-11-29T13:26:36.641Z,7.10
2018-11-29T13:29:07.681Z,7.60
2018-11-29T13:31:39.751Z,7.10
2018-11-29T13:34:10.957Z,7.30
2018-11-29T13:36:42.517Z,7.90
2018-11-29T13:39:14.855Z,6.53
2018-11-29T13:41:46.418Z,6.90
2018-11-29T13:44:18.177Z,6.90
2018-11-29T13:46:49.609Z,5.57
2018-11-29T13:49:20.631Z,6.10
2018-11-29T13:51:52.293Z,6.80
2018-11-29T13:54:23.358Z,6.63
2018-11-29T13:56:55.137Z,6.07
2018-11-29T13:59:26.485Z,5.90
2018-11-29T14:01:58.546Z,5.13
2018-11-29T14:04:29.693Z,5.80
2018-11-29T14:07:00.973Z,6.20
2018-11-29T14:09:31.981Z,4.60
2018-11-29T14:12:04.433Z,5.63
2018-11-29T14:14:35.537Z,5.57
2018-11-29T14:17:08.599Z,5.13
2018-11-29T14:19:40.784Z,5.27
2018-11-29T14:22:12.469Z,5.30
2018-11-29T14:24:43.640Z,5.37
2018-11-29T14:27:15.423Z,4.67
2018-11-29T14:29:46.582Z,5.10
2018-11-29T14:32:17.890Z,4.77
2018-11-29T14:34:51.707Z,5.40
2018-11-29T14:37:20.886Z,4.90
2018-11-29T14:39:52.101Z,5.03
2018-11-29T14:42:23.493Z,4.80
2018-11-29T14:44:54.713Z,5.07
2018-11-29T14:47:26.509Z,5.10
2018-11-29T14:49:57.697Z,5.77
2018-11-29T14:52:29.564Z,5.80
2018-11-29T14:55:00.796Z,6.10
2018-11-29T14:57:32.205Z,4.90
2018-11-29T15:00:03.405Z,5.17
2018-11-29T15:02:35.021Z,5.30
2018-11-29T15:05:08.757Z,4.80
2018-11-29T15:07:40.340Z,4.70
2018-11-29T15:10:12.005Z,3.73
2018-11-29T15:12:43.121Z,5.00
2018-11-29T15:15:15.367Z,4.63
2018-11-29T15:17:47.884Z,5.40
2018-11-29T15:20:24.805Z,5.40
2018-11-29T15:22:56.192Z,5.10
2018-11-29T15:25:27.469Z,5.53
2018-11-29T15:27:59.285Z,4.23
2018-11-29T15:30:30.839Z,4.73
2018-11-29T15:33:02.473Z,5.40
2018-11-29T15:35:33.677Z,5.80
2018-11-29T15:38:05.133Z,6.37
2018-11-29T15:40:36.498Z,5.37
2018-11-29T15:43:08.261Z,5.60
2018-11-29T15:45:39.467Z,5.03
2018-11-29T15:48:10.972Z,5.10
2018-11-29T15:50:46.103Z,5.17
2018-11-29T15:53:18.385Z,5.00
2018-11-29T15:55:49.481Z,5.20
2018-11-29T15:58:20.932Z,5.67
2018-11-29T16:00:52.171Z,4.80
2018-11-29T16:03:23.844Z,4.70
2018-11-29T16:05:54.968Z,4.90
2018-11-29T16:08:26.201Z,5.40
2018-11-29T16:10:57.330Z,5.53
2018-11-29T16:13:28.741Z,4.53
2018-11-29T16:15:59.990Z,4.30
2018-11-29T16:18:31.141Z,5.07
2018-11-29T16:21:03.185Z,4.53
2018-11-29T16:23:34.494Z,4.87
2018-11-29T16:26:06.460Z,5.50
2018-11-29T16:28:38.269Z,5.20
2018-11-29T16:31:10.253Z,6.00
2018-11-29T16:33:42.033Z,4.83
2018-11-29T16:36:13.101Z,6.33
2018-11-29T16:38:44.724Z,6.20
2018-11-29T16:41:15.848Z,5.83
2018-11-29T16:43:47.370Z,5.40
2018-11-29T16:46:18.437Z,5.43
2018-11-29T16:48:49.951Z,6.03
2018-11-29T16:51:21.017Z,6.30
2018-11-29T16:53:52.803Z,5.40
2018-11-29T16:56:24.921Z,6.20
2018-11-29T16:58:56.505Z,5.97
2018-11-29T17:01:27.723Z,6.63
2018-11-29T17:03:59.387Z,6.40
2018-11-29T17:06:30.620Z,5.77
2018-11-29T17:09:02.294Z,5.70
2018-11-29T17:11:33.456Z,6.63
2018-11-29T17:14:04.992Z,8.00
2018-11-29T17:16:36.061Z,5.80
2018-11-29T17:19:07.446Z,7.07
2018-11-29T17:21:40.473Z,7.00
2018-11-29T17:24:12.636Z,8.13
2018-11-29T17:26:43.885Z,8.30
2018-11-29T17:29:15.361Z,11.60
2018-11-29T17:31:46.790Z,11.37
2018-11-29T17:34:18.247Z,12.60
2018-11-29T17:36:49.529Z,13.20
2018-11-29T17:39:20.825Z,11.50
2018-11-29T17:41:52.161Z,10.83
2018-11-29T17:44:23.382Z,10.43
2018-11-29T17:46:54.718Z,11.03
2018-11-29T17:49:26.982Z,10.10
2018-11-29T17:51:58.112Z,10.37
2018-11-29T17:54:29.931Z,10.80
2018-11-29T17:57:00.901Z,10.87
2018-11-29T17:59:32.389Z,10.00
2018-11-29T18:02:05.777Z,9.70
2018-11-29T18:04:37.716Z,8.93
2018-11-29T18:07:09.373Z,8.97
2018-11-29T18:09:41.028Z,9.87
2018-11-29T18:12:12.381Z,9.97
2018-11-29T18:14:43.841Z,9.67
2018-11-29T18:17:15.231Z,9.67
2018-11-29T18:19:46.504Z,8.60
2018-11-29T18:22:18.631Z,8.63
2018-11-29T18:24:50.192Z,7.47
2018-11-29T18:27:21.809Z,9.23
2018-11-29T18:29:53.721Z,8.93
2018-11-29T18:32:24.988Z,7.93
2018-11-29T18:34:56.793Z,7.93
2018-11-29T18:37:27.825Z,7.57
2018-11-29T18:39:59.176Z,9.47
2018-11-29T18:42:30.526Z,8.00
2018-11-29T18:45:01.969Z,9.33
2018-11-29T18:47:33.199Z,8.17
2018-11-29T18:50:04.673Z,8.57
2018-11-29T18:52:35.814Z,7.47
2018-11-29T18:55:07.116Z,8.00
2018-11-29T18:57:38.373Z,8.70
2018-11-29T19:00:12.642Z,8.20
2018-11-29T19:02:44.008Z,8.07
2018-11-29T19:05:15.412Z,8.00
2018-11-29T19:07:46.617Z,8.40
2018-11-29T19:10:20.184Z,8.13
2018-11-29T19:12:54.063Z,7.03
2018-11-29T19:15:25.852Z,7.70
2018-11-29T19:17:57.223Z,8.43
2018-11-29T19:20:29.093Z,7.33
2018-11-29T19:23:01.664Z,8.60
2018-11-29T19:25:32.889Z,8.63
2018-11-29T19:28:04.136Z,8.07
2018-11-29T19:30:35.332Z,8.10
2018-11-29T19:33:17.494Z,8.43
2018-11-29T19:35:49.417Z,8.40
2018-11-29T19:38:20.521Z,8.60
2018-11-29T19:40:51.844Z,8.47
2018-11-29T19:43:23.064Z,8.37
2018-11-29T19:45:54.431Z,8.60
2018-11-29T19:48:25.515Z,8.47
2018-11-29T19:50:56.904Z,9.80
2018-11-29T19:53:28.522Z,7.73
2018-11-29T19:56:01.457Z,8.40
2018-11-29T19:58:32.626Z,9.40
2018-11-29T20:01:05.844Z,9.17
2018-11-29T20:03:36.811Z,9.93
2018-11-29T20:06:08.339Z,10.20
2018-11-29T20:08:39.592Z,9.40
2018-11-29T20:11:11.625Z,11.30
2018-11-29T20:13:42.545Z,9.93
2018-11-29T20:16:13.793Z,10.87
2018-11-29T20:18:44.997Z,10.90
2018-11-29T20:21:17.023Z,10.07
2018-11-29T20:23:49.513Z,9.57
2018-11-29T20:26:20.749Z,10.17
2018-11-29T20:28:51.964Z,11.40
2018-11-29T20:31:23.252Z,10.50
2018-11-29T20:33:54.437Z,10.83
2018-11-29T20:36:25.597Z,11.73
2018-11-29T20:38:57.017Z,10.17
2018-11-29T20:41:28.562Z,11.47
2018-11-29T20:43:59.797Z,10.83
2018-11-29T20:46:31.648Z,11.77
2018-11-29T20:49:04.284Z,13.27
2018-11-29T20:51:35.622Z,12.03
2018-11-29T20:54:06.749Z,12.90
2018-11-29T20:56:38.156Z,13.57
2018-11-29T20:59:09.444Z,14.20
2018-11-29T21:01:40.920Z,15.53
2018-11-29T21:04:12.063Z,13.97
2018-11-29T21:06:43.505Z,16.27
2018-11-29T21:09:15.301Z,15.13
2018-11-29T21:11:47.922Z,16.10
2018-11-29T21:14:18.153Z,15.93
2018-11-29T21:16:49.668Z,17.93
2018-11-29T21:19:20.761Z,15.93
2018-11-29T21:21:52.293Z,16.73
2018-11-29T21:24:24.862Z,16.27
2018-11-29T21:26:56.269Z,15.73
2018-11-29T21:29:27.626Z,15.60
2018-11-29T21:31:59.124Z,16.20
2018-11-29T21:34:30.113Z,18.70
2018-11-29T21:37:01.699Z,17.60
2018-11-29T21:39:32.867Z,17.70
2018-11-29T21:42:04.841Z,18.47
2018-11-29T21:44:36.151Z,18.07
2018-11-29T21:47:07.553Z,19.30
2018-11-29T21:49:38.821Z,18.33
2018-11-29T21:52:10.839Z,18.10
2018-11-29T21:54:41.987Z,18.00
2018-11-29T21:57:13.387Z,16.73
2018-11-29T21:59:44.584Z,17.47
2018-11-29T22:02:16.002Z,18.57
2018-11-29T22:04:47.093Z,17.83
2018-11-29T22:07:18.936Z,19.03
2018-11-29T22:09:50.166Z,19.03
2018-11-29T22:12:21.489Z,19.40
2018-11-29T22:14:52.695Z,19.13
2018-11-29T22:17:24.462Z,18.90
2018-11-29T22:19:59.594Z,18.83
2018-11-29T22:22:31.965Z,18.70
2018-11-29T22:25:04.602Z,18.40
2018-11-29T22:27:36.669Z,18.07
2018-11-29T22:30:09.068Z,17.97
2018-11-29T22:32:40.885Z,17.33
2018-11-29T22:35:12.057Z,17.40
2018-11-29T22:37:43.619Z,16.53
2018-11-29T22:40:14.922Z,16.30
2018-11-29T22:42:46.277Z,15.33
2018-11-29T22:45:17.556Z,15.50
2018-11-29T22:47:49.850Z,15.87
2018-11-29T22:50:21.074Z,16.23
2018-11-29T22:52:52.620Z,16.00
2018-11-29T22:55:23.798Z,17.50
2018-11-29T22:57:55.353Z,14.57
2018-11-29T23:00:26.962Z,15.20
2018-11-29T23:02:58.680Z,14.93
2018-11-29T23:05:30.053Z,15.10
2018-11-29T23:08:02.546Z,15.90
2018-11-29T23:10:33.608Z,14.33
2018-11-29T23:13:05.908Z,14.13
2018-11-29T23:15:37.165Z,13.90
2018-11-29T23:18:08.828Z,14.43
2018-11-29T23:20:40.297Z,14.20
2018-11-29T23:23:11.901Z,13.53
2018-11-29T23:25:44.091Z,14.27
2018-11-29T23:28:15.426Z,13.53
2018-11-29T23:30:46.588Z,13.60
2018-11-29T23:33:17.768Z,14.17
2018-11-29T23:35:49.084Z,13.13
2018-11-29T23:38:20.577Z,13.43
2018-11-29T23:40:51.835Z,14.20
2018-11-29T23:43:23.847Z,13.57
2018-11-29T23:45:54.965Z,14.57
2018-11-29T23:48:26.605Z,13.90
2018-11-29T23:50:58.203Z,14.40
2018-11-29T23:53:29.741Z,13.57
2018-11-29T23:56:00.817Z,13.90
2018-11-29T23:58:32.381Z,13.37
